sensor_id;sensor_type;location;lat;lon;timestamp;pressure;altitude;pressure_sealevel;temperature;humidity
9969;BME280;5025;48.890;9.278;2022-08-03T00:01:15;98776.97;;;23.07;48.04
9969;BME280;5025;48.890;9.278;2022-08-03T00:03:40;98786.34;;;23.06;48.46
9969;BME280;5025;48.890;9.278;2022-08-03T00:06:05;98777.75;;;23.07;48.29
9969;BME280;5025;48.890;9.278;2022-08-03T00:08:31;98775.31;;;23.06;48.44
9969;BME280;5025;48.890;9.278;2022-08-03T00:10:56;98778.38;;;23.04;48.67
9969;BME280;5025;48.890;9.278;2022-08-03T00:13:22;98774.31;;;23.02;48.48
9969;BME280;5025;48.890;9.278;2022-08-03T00:15:47;98781.25;;;22.99;48.72
9969;BME280;5025;48.890;9.278;2022-08-03T00:18:12;98781.06;;;22.96;48.56
9969;BME280;5025;48.890;9.278;2022-08-03T00:20:38;98778.59;;;22.94;48.76
9969;BME280;5025;48.890;9.278;2022-08-03T00:23:03;98767.41;;;22.90;48.79
9969;BME280;5025;48.890;9.278;2022-08-03T00:25:29;98767.22;;;22.87;48.84
9969;BME280;5025;48.890;9.278;2022-08-03T00:27:54;98773.34;;;22.84;49.10
9969;BME280;5025;48.890;9.278;2022-08-03T00:30:20;98770.69;;;22.79;49.30
9969;BME280;5025;48.890;9.278;2022-08-03T00:32:45;98768.06;;;22.73;49.28
9969;BME280;5025;48.890;9.278;2022-08-03T00:35:11;98767.88;;;22.70;49.32
9969;BME280;5025;48.890;9.278;2022-08-03T00:37:36;98772.06;;;22.67;49.22
9969;BME280;5025;48.890;9.278;2022-08-03T00:40:02;98773.00;;;22.63;49.67
9969;BME280;5025;48.890;9.278;2022-08-03T00:42:28;98773.00;;;22.49;50.08
9969;BME280;5025;48.890;9.278;2022-08-03T00:44:53;98767.00;;;22.47;50.06
9969;BME280;5025;48.890;9.278;2022-08-03T00:47:18;98769.47;;;22.48;50.17
9969;BME280;5025;48.890;9.278;2022-08-03T00:49:44;98772.00;;;22.45;50.31
9969;BME280;5025;48.890;9.278;2022-08-03T00:52:10;98773.63;;;22.46;50.31
9969;BME280;5025;48.890;9.278;2022-08-03T00:54:37;98773.13;;;22.44;50.18
9969;BME280;5025;48.890;9.278;2022-08-03T00:57:03;98775.03;;;22.43;50.35
9969;BME280;5025;48.890;9.278;2022-08-03T00:59:29;98771.50;;;22.43;50.53
9969;BME280;5025;48.890;9.278;2022-08-03T01:01:55;98768.56;;;22.39;50.53
9969;BME280;5025;48.890;9.278;2022-08-03T01:04:20;98771.59;;;22.37;50.30
9969;BME280;5025;48.890;9.278;2022-08-03T01:06:53;98767.03;;;22.33;50.54
9969;BME280;5025;48.890;9.278;2022-08-03T01:12:24;98762.94;;;22.30;50.53
9969;BME280;5025;48.890;9.278;2022-08-03T01:14:59;98758.56;;;22.29;50.35
9969;BME280;5025;48.890;9.278;2022-08-03T01:17:39;98758.03;;;22.27;50.62
9969;BME280;5025;48.890;9.278;2022-08-03T01:20:12;98759.56;;;22.19;50.65
9969;BME280;5025;48.890;9.278;2022-08-03T01:23:05;98753.06;;;22.15;50.87
9969;BME280;5025;48.890;9.278;2022-08-03T01:28:46;98750.09;;;22.12;51.08
9969;BME280;5025;48.890;9.278;2022-08-03T01:31:21;98748.78;;;22.09;50.80
9969;BME280;5025;48.890;9.278;2022-08-03T01:33:51;98747.16;;;22.08;50.70
9969;BME280;5025;48.890;9.278;2022-08-03T01:36:23;98746.34;;;22.08;50.58
9969;BME280;5025;48.890;9.278;2022-08-03T01:38:54;98746.94;;;22.05;50.31
9969;BME280;5025;48.890;9.278;2022-08-03T01:41:24;98747.56;;;22.01;50.19
9969;BME280;5025;48.890;9.278;2022-08-03T01:43:52;98742.66;;;21.98;50.05
9969;BME280;5025;48.890;9.278;2022-08-03T01:46:19;98741.63;;;21.94;50.02
9969;BME280;5025;48.890;9.278;2022-08-03T01:48:47;98739.50;;;21.91;49.85
9969;BME280;5025;48.890;9.278;2022-08-03T01:51:15;98737.34;;;21.88;49.68
9969;BME280;5025;48.890;9.278;2022-08-03T01:53:41;98730.84;;;21.84;49.99
9969;BME280;5025;48.890;9.278;2022-08-03T01:56:10;98732.34;;;21.76;50.53
9969;BME280;5025;48.890;9.278;2022-08-03T01:58:37;98733.78;;;21.74;51.06
9969;BME280;5025;48.890;9.278;2022-08-03T02:01:04;98740.41;;;21.73;51.24
9969;BME280;5025;48.890;9.278;2022-08-03T02:03:33;98726.66;;;21.73;51.46
9969;BME280;5025;48.890;9.278;2022-08-03T02:06:01;98732.47;;;21.71;51.39
9969;BME280;5025;48.890;9.278;2022-08-03T02:08:27;98734.41;;;21.71;51.68
9969;BME280;5025;48.890;9.278;2022-08-03T02:10:55;98737.75;;;21.67;51.78
9969;BME280;5025;48.890;9.278;2022-08-03T02:13:22;98732.25;;;21.67;51.94
9969;BME280;5025;48.890;9.278;2022-08-03T02:15:48;98732.88;;;21.64;51.66
9969;BME280;5025;48.890;9.278;2022-08-03T02:18:17;98734.78;;;21.64;51.75
9969;BME280;5025;48.890;9.278;2022-08-03T02:20:43;98736.72;;;21.63;51.91
9969;BME280;5025;48.890;9.278;2022-08-03T02:23:09;98740.06;;;21.60;52.07
9969;BME280;5025;48.890;9.278;2022-08-03T02:25:40;98740.47;;;21.54;52.29
9969;BME280;5025;48.890;9.278;2022-08-03T02:28:10;98730.59;;;21.53;52.38
9969;BME280;5025;48.890;9.278;2022-08-03T02:30:37;98735.03;;;21.48;52.42
9969;BME280;5025;48.890;9.278;2022-08-03T02:33:16;98732.59;;;21.47;52.49
9969;BME280;5025;48.890;9.278;2022-08-03T02:35:43;98738.06;;;21.47;52.73
9969;BME280;5025;48.890;9.278;2022-08-03T02:38:10;98734.53;;;21.46;52.44
9969;BME280;5025;48.890;9.278;2022-08-03T02:40:39;98737.28;;;21.46;52.73
9969;BME280;5025;48.890;9.278;2022-08-03T02:43:08;98737.88;;;21.43;52.61
9969;BME280;5025;48.890;9.278;2022-08-03T02:45:36;98729.13;;;21.41;52.74
9969;BME280;5025;48.890;9.278;2022-08-03T02:48:07;98728.91;;;21.38;52.50
9969;BME280;5025;48.890;9.278;2022-08-03T02:50:35;98732.25;;;21.35;52.62
9969;BME280;5025;48.890;9.278;2022-08-03T02:53:02;98732.66;;;21.28;52.72
9969;BME280;5025;48.890;9.278;2022-08-03T02:55:28;98733.25;;;21.25;53.11
9969;BME280;5025;48.890;9.278;2022-08-03T02:57:55;98726.13;;;21.24;53.11
9969;BME280;5025;48.890;9.278;2022-08-03T03:00:22;98730.28;;;21.21;53.13
9969;BME280;5025;48.890;9.278;2022-08-03T03:02:48;98726.22;;;21.19;53.61
9969;BME280;5025;48.890;9.278;2022-08-03T03:05:15;98724.38;;;21.14;53.53
9969;BME280;5025;48.890;9.278;2022-08-03T03:07:41;98731.34;;;21.06;53.90
9969;BME280;5025;48.890;9.278;2022-08-03T03:10:07;98731.75;;;21.00;54.12
9969;BME280;5025;48.890;9.278;2022-08-03T03:12:36;98729.09;;;20.94;54.14
9969;BME280;5025;48.890;9.278;2022-08-03T03:15:04;98726.69;;;20.88;54.57
9969;BME280;5025;48.890;9.278;2022-08-03T03:17:30;98732.06;;;20.79;54.88
9969;BME280;5025;48.890;9.278;2022-08-03T03:19:57;98726.88;;;20.77;54.96
9969;BME280;5025;48.890;9.278;2022-08-03T03:22:23;98730.13;;;20.80;55.22
9969;BME280;5025;48.890;9.278;2022-08-03T03:24:49;98725.53;;;20.75;55.25
9969;BME280;5025;48.890;9.278;2022-08-03T03:27:16;98726.44;;;20.70;55.24
9969;BME280;5025;48.890;9.278;2022-08-03T03:29:42;98723.69;;;20.70;55.52
9969;BME280;5025;48.890;9.278;2022-08-03T03:32:08;98722.34;;;20.68;55.62
9969;BME280;5025;48.890;9.278;2022-08-03T03:34:34;98727.22;;;20.71;55.82
9969;BME280;5025;48.890;9.278;2022-08-03T03:37:00;98720.63;;;20.72;55.62
9969;BME280;5025;48.890;9.278;2022-08-03T03:39:25;98725.03;;;20.73;55.48
9969;BME280;5025;48.890;9.278;2022-08-03T03:41:51;98726.63;;;20.74;55.53
9969;BME280;5025;48.890;9.278;2022-08-03T03:44:16;98723.38;;;20.72;55.73
9969;BME280;5025;48.890;9.278;2022-08-03T03:46:42;98720.94;;;20.70;55.60
9969;BME280;5025;48.890;9.278;2022-08-03T03:49:07;98728.38;;;20.70;55.86
9969;BME280;5025;48.890;9.278;2022-08-03T03:51:33;98716.25;;;20.71;55.84
9969;BME280;5025;48.890;9.278;2022-08-03T03:54:01;98724.47;;;20.71;55.85
9969;BME280;5025;48.890;9.278;2022-08-03T03:56:27;98719.00;;;20.71;55.70
9969;BME280;5025;48.890;9.278;2022-08-03T03:58:53;98717.59;;;20.73;55.74
9969;BME280;5025;48.890;9.278;2022-08-03T04:01:19;98717.59;;;20.73;55.56
9969;BME280;5025;48.890;9.278;2022-08-03T04:03:45;98716.78;;;20.73;55.65
9969;BME280;5025;48.890;9.278;2022-08-03T04:06:11;98727.22;;;20.71;55.76
9969;BME280;5025;48.890;9.278;2022-08-03T04:08:55;98723.16;;;20.68;55.83
9969;BME280;5025;48.890;9.278;2022-08-03T04:11:48;98726.22;;;20.67;55.67
9969;BME280;5025;48.890;9.278;2022-08-03T04:14:26;98726.78;;;20.64;55.58
9969;BME280;5025;48.890;9.278;2022-08-03T04:16:58;98734.47;;;20.62;55.79
9969;BME280;5025;48.890;9.278;2022-08-03T04:19:35;98733.66;;;20.61;55.65
9969;BME280;5025;48.890;9.278;2022-08-03T04:22:05;98732.31;;;20.58;55.94
9969;BME280;5025;48.890;9.278;2022-08-03T04:24:45;98731.00;;;20.56;55.86
9969;BME280;5025;48.890;9.278;2022-08-03T04:27:15;98737.59;;;20.55;55.67
9969;BME280;5025;48.890;9.278;2022-08-03T04:29:45;98733.19;;;20.54;55.53
9969;BME280;5025;48.890;9.278;2022-08-03T04:32:12;98736.53;;;20.51;56.05
9969;BME280;5025;48.890;9.278;2022-08-03T04:34:38;98736.84;;;20.49;55.76
9969;BME280;5025;48.890;9.278;2022-08-03T04:37:09;98734.69;;;20.46;55.98
9969;BME280;5025;48.890;9.278;2022-08-03T04:39:37;98735.81;;;20.45;55.96
9969;BME280;5025;48.890;9.278;2022-08-03T04:42:05;98733.88;;;20.46;55.98
9969;BME280;5025;48.890;9.278;2022-08-03T04:44:36;98749.81;;;20.44;56.18
9969;BME280;5025;48.890;9.278;2022-08-03T04:47:02;98752.03;;;20.41;56.30
9969;BME280;5025;48.890;9.278;2022-08-03T04:49:29;98752.09;;;20.36;56.52
9969;BME280;5025;48.890;9.278;2022-08-03T04:51:54;98754.84;;;20.36;56.48
9969;BME280;5025;48.890;9.278;2022-08-03T04:54:20;98752.41;;;20.35;56.84
9969;BME280;5025;48.890;9.278;2022-08-03T04:56:45;98755.72;;;20.32;57.06
9969;BME280;5025;48.890;9.278;2022-08-03T04:59:11;98756.53;;;20.32;57.13
9969;BME280;5025;48.890;9.278;2022-08-03T05:01:36;98762.84;;;20.33;57.30
9969;BME280;5025;48.890;9.278;2022-08-03T05:04:03;98751.88;;;20.33;57.40
9969;BME280;5025;48.890;9.278;2022-08-03T05:06:28;98757.06;;;20.34;57.44
9969;BME280;5025;48.890;9.278;2022-08-03T05:08:54;98748.84;;;20.34;57.37
9969;BME280;5025;48.890;9.278;2022-08-03T05:11:19;98754.63;;;20.33;57.75
9969;BME280;5025;48.890;9.278;2022-08-03T05:13:45;98758.53;;;20.27;57.91
9969;BME280;5025;48.890;9.278;2022-08-03T05:16:11;98754.66;;;20.28;57.71
9969;BME280;5025;48.890;9.278;2022-08-03T05:18:38;98753.84;;;20.27;57.86
9969;BME280;5025;48.890;9.278;2022-08-03T05:21:03;98756.31;;;20.29;57.96
9969;BME280;5025;48.890;9.278;2022-08-03T05:23:29;98757.94;;;20.30;57.68
9969;BME280;5025;48.890;9.278;2022-08-03T05:25:54;98757.88;;;20.35;57.80
9969;BME280;5025;48.890;9.278;2022-08-03T05:28:20;98765.00;;;20.36;57.86
9969;BME280;5025;48.890;9.278;2022-08-03T05:30:45;98765.53;;;20.38;57.79
9969;BME280;5025;48.890;9.278;2022-08-03T05:33:10;98763.00;;;20.41;57.83
9969;BME280;5025;48.890;9.278;2022-08-03T05:35:36;98764.84;;;20.46;57.65
9969;BME280;5025;48.890;9.278;2022-08-03T05:38:03;98767.00;;;20.49;57.62
9969;BME280;5025;48.890;9.278;2022-08-03T05:40:29;98759.84;;;20.53;57.74
9969;BME280;5025;48.890;9.278;2022-08-03T05:42:54;98760.34;;;20.55;57.38
9969;BME280;5025;48.890;9.278;2022-08-03T05:45:19;98761.41;;;20.59;57.31
9969;BME280;5025;48.890;9.278;2022-08-03T05:47:45;98759.69;;;20.64;57.36
9969;BME280;5025;48.890;9.278;2022-08-03T05:50:11;98761.88;;;20.67;57.37
9969;BME280;5025;48.890;9.278;2022-08-03T05:52:38;98767.28;;;20.72;57.26
9969;BME280;5025;48.890;9.278;2022-08-03T05:55:05;98762.59;;;20.72;57.37
9969;BME280;5025;48.890;9.278;2022-08-03T05:57:31;98762.00;;;20.75;57.39
9969;BME280;5025;48.890;9.278;2022-08-03T05:59:57;98762.25;;;20.79;57.19
9969;BME280;5025;48.890;9.278;2022-08-03T06:02:22;98759.44;;;20.84;57.26
9969;BME280;5025;48.890;9.278;2022-08-03T06:04:47;98761.28;;;20.89;57.31
9969;BME280;5025;48.890;9.278;2022-08-03T06:07:13;98760.38;;;20.93;57.22
9969;BME280;5025;48.890;9.278;2022-08-03T06:09:38;98761.94;;;21.00;57.23
9969;BME280;5025;48.890;9.278;2022-08-03T06:12:05;98757.78;;;21.02;57.33
9969;BME280;5025;48.890;9.278;2022-08-03T06:14:31;98761.75;;;21.10;57.25
9969;BME280;5025;48.890;9.278;2022-08-03T06:16:56;98764.97;;;21.17;57.21
9969;BME280;5025;48.890;9.278;2022-08-03T06:19:21;98764.88;;;21.22;57.20
9969;BME280;5025;48.890;9.278;2022-08-03T06:21:48;98761.22;;;21.27;57.18
9969;BME280;5025;48.890;9.278;2022-08-03T06:24:13;98762.25;;;21.31;57.29
9969;BME280;5025;48.890;9.278;2022-08-03T06:26:39;98767.16;;;21.34;57.42
9969;BME280;5025;48.890;9.278;2022-08-03T06:29:04;98761.88;;;21.38;57.27
9969;BME280;5025;48.890;9.278;2022-08-03T06:31:30;98766.16;;;21.44;57.00
9969;BME280;5025;48.890;9.278;2022-08-03T06:33:55;98769.66;;;21.49;56.88
9969;BME280;5025;48.890;9.278;2022-08-03T06:36:20;98766.03;;;21.54;57.01
9969;BME280;5025;48.890;9.278;2022-08-03T06:38:46;98763.16;;;21.59;57.15
9969;BME280;5025;48.890;9.278;2022-08-03T06:41:11;98764.22;;;21.63;57.10
9969;BME280;5025;48.890;9.278;2022-08-03T06:43:37;98763.59;;;21.66;56.97
9969;BME280;5025;48.890;9.278;2022-08-03T06:46:03;98767.88;;;21.73;56.79
9969;BME280;5025;48.890;9.278;2022-08-03T06:48:29;98766.69;;;21.79;56.46
9969;BME280;5025;48.890;9.278;2022-08-03T06:50:55;98765.25;;;21.81;56.56
9969;BME280;5025;48.890;9.278;2022-08-03T06:53:20;98769.75;;;21.91;56.37
9969;BME280;5025;48.890;9.278;2022-08-03T06:55:45;98766.88;;;21.96;56.23
9969;BME280;5025;48.890;9.278;2022-08-03T06:58:10;98777.50;;;22.03;56.42
9969;BME280;5025;48.890;9.278;2022-08-03T07:00:36;98769.94;;;22.09;56.33
9969;BME280;5025;48.890;9.278;2022-08-03T07:03:02;98773.22;;;22.11;56.21
9969;BME280;5025;48.890;9.278;2022-08-03T07:05:27;98769.34;;;22.12;56.09
9969;BME280;5025;48.890;9.278;2022-08-03T07:07:56;98768.72;;;22.15;56.08
9969;BME280;5025;48.890;9.278;2022-08-03T07:10:23;98769.44;;;22.20;56.14
9969;BME280;5025;48.890;9.278;2022-08-03T07:12:49;98772.91;;;22.26;56.03
9969;BME280;5025;48.890;9.278;2022-08-03T07:15:14;98778.34;;;22.31;56.09
9969;BME280;5025;48.890;9.278;2022-08-03T07:17:39;98774.97;;;22.34;55.97
9969;BME280;5025;48.890;9.278;2022-08-03T07:20:06;98765.50;;;22.41;55.65
9969;BME280;5025;48.890;9.278;2022-08-03T07:22:33;98761.81;;;22.45;55.72
9969;BME280;5025;48.890;9.278;2022-08-03T07:24:58;98756.38;;;22.54;55.21
9969;BME280;5025;48.890;9.278;2022-08-03T07:27:24;98758.91;;;22.64;55.05
9969;BME280;5025;48.890;9.278;2022-08-03T07:29:51;98761.13;;;22.76;55.09
9969;BME280;5025;48.890;9.278;2022-08-03T07:32:17;98761.72;;;22.87;54.94
9969;BME280;5025;48.890;9.278;2022-08-03T07:34:42;98770.34;;;22.94;54.50
9969;BME280;5025;48.890;9.278;2022-08-03T07:37:07;98765.84;;;22.98;54.50
9969;BME280;5025;48.890;9.278;2022-08-03T07:39:33;98762.34;;;23.06;54.24
9969;BME280;5025;48.890;9.278;2022-08-03T07:41:59;98763.09;;;23.12;53.99
9969;BME280;5025;48.890;9.278;2022-08-03T07:44:24;98767.53;;;23.22;54.00
9969;BME280;5025;48.890;9.278;2022-08-03T07:46:49;98767.28;;;23.32;53.80
9969;BME280;5025;48.890;9.278;2022-08-03T07:49:16;98767.34;;;23.41;53.79
9969;BME280;5025;48.890;9.278;2022-08-03T07:51:41;98758.00;;;23.51;53.04
9969;BME280;5025;48.890;9.278;2022-08-03T07:54:06;98764.38;;;23.60;52.88
9969;BME280;5025;48.890;9.278;2022-08-03T07:56:34;98753.09;;;23.70;52.91
9969;BME280;5025;48.890;9.278;2022-08-03T07:58:59;98752.78;;;23.80;52.55
9969;BME280;5025;48.890;9.278;2022-08-03T08:01:26;98754.47;;;23.90;52.27
9969;BME280;5025;48.890;9.278;2022-08-03T08:03:51;98750.75;;;23.95;52.43
9969;BME280;5025;48.890;9.278;2022-08-03T08:06:17;98752.59;;;24.08;51.91
9969;BME280;5025;48.890;9.278;2022-08-03T08:08:42;98744.69;;;24.15;51.57
9969;BME280;5025;48.890;9.278;2022-08-03T08:11:08;98748.09;;;24.21;51.46
9969;BME280;5025;48.890;9.278;2022-08-03T08:13:33;98745.06;;;24.31;51.09
9969;BME280;5025;48.890;9.278;2022-08-03T08:15:59;98744.72;;;24.33;50.98
9969;BME280;5025;48.890;9.278;2022-08-03T08:18:24;98742.31;;;24.40;50.74
9969;BME280;5025;48.890;9.278;2022-08-03T08:20:50;98742.00;;;24.50;50.25
9969;BME280;5025;48.890;9.278;2022-08-03T08:23:15;98735.88;;;24.62;50.23
9969;BME280;5025;48.890;9.278;2022-08-03T08:25:48;98740.25;;;24.72;49.82
9969;BME280;5025;48.890;9.278;2022-08-03T08:28:17;98747.13;;;24.83;49.47
9969;BME280;5025;48.890;9.278;2022-08-03T08:30:42;98728.25;;;24.85;49.39
9969;BME280;5025;48.890;9.278;2022-08-03T08:33:07;98742.06;;;24.94;49.07
9969;BME280;5025;48.890;9.278;2022-08-03T08:35:33;98740.94;;;25.04;48.94
9969;BME280;5025;48.890;9.278;2022-08-03T08:37:59;98745.28;;;25.14;48.34
9969;BME280;5025;48.890;9.278;2022-08-03T08:40:28;98745.78;;;25.24;48.30
9969;BME280;5025;48.890;9.278;2022-08-03T08:42:53;98746.25;;;25.27;48.12
9969;BME280;5025;48.890;9.278;2022-08-03T08:45:19;98738.97;;;25.31;48.07
9969;BME280;5025;48.890;9.278;2022-08-03T08:47:46;98738.78;;;25.36;47.82
9969;BME280;5025;48.890;9.278;2022-08-03T08:50:13;98739.09;;;25.43;46.99
9969;BME280;5025;48.890;9.278;2022-08-03T08:52:39;98738.56;;;25.58;46.30
9969;BME280;5025;48.890;9.278;2022-08-03T08:55:08;98730.41;;;25.71;45.58
9969;BME280;5025;48.890;9.278;2022-08-03T08:57:37;98733.63;;;25.82;45.48
9969;BME280;5025;48.890;9.278;2022-08-03T09:00:08;98737.34;;;25.86;44.80
9969;BME280;5025;48.890;9.278;2022-08-03T09:02:35;98738.16;;;25.86;43.76
9969;BME280;5025;48.890;9.278;2022-08-03T09:05:02;98738.94;;;26.04;43.49
9969;BME280;5025;48.890;9.278;2022-08-03T09:07:28;98736.41;;;26.20;43.23
9969;BME280;5025;48.890;9.278;2022-08-03T09:09:53;98735.00;;;26.35;42.58
9969;BME280;5025;48.890;9.278;2022-08-03T09:12:19;98738.34;;;26.50;42.37
9969;BME280;5025;48.890;9.278;2022-08-03T09:14:44;98735.13;;;26.69;41.88
9969;BME280;5025;48.890;9.278;2022-08-03T09:17:10;98737.03;;;26.77;41.23
9969;BME280;5025;48.890;9.278;2022-08-03T09:19:35;98740.06;;;26.84;41.40
9969;BME280;5025;48.890;9.278;2022-08-03T09:24:33;98729.66;;;26.81;40.65
9969;BME280;5025;48.890;9.278;2022-08-03T09:26:58;98727.28;;;26.92;40.15
9969;BME280;5025;48.890;9.278;2022-08-03T09:29:24;98728.63;;;27.07;39.71
9969;BME280;5025;48.890;9.278;2022-08-03T09:31:59;98720.91;;;27.12;39.82
9969;BME280;5025;48.890;9.278;2022-08-03T09:34:25;98715.16;;;27.17;39.45
9969;BME280;5025;48.890;9.278;2022-08-03T09:36:52;98723.66;;;27.33;39.35
9969;BME280;5025;48.890;9.278;2022-08-03T09:39:23;98719.78;;;27.47;38.33
9969;BME280;5025;48.890;9.278;2022-08-03T09:42:06;98719.81;;;27.59;37.43
9969;BME280;5025;48.890;9.278;2022-08-03T09:44:37;98717.50;;;27.73;37.53
9969;BME280;5025;48.890;9.278;2022-08-03T09:47:04;98721.78;;;27.83;37.34
9969;BME280;5025;48.890;9.278;2022-08-03T09:49:31;98715.91;;;27.85;37.30
9969;BME280;5025;48.890;9.278;2022-08-03T09:51:59;98710.94;;;27.90;37.44
9969;BME280;5025;48.890;9.278;2022-08-03T09:54:27;98710.38;;;27.97;36.97
9969;BME280;5025;48.890;9.278;2022-08-03T09:56:52;98706.69;;;28.05;36.80
9969;BME280;5025;48.890;9.278;2022-08-03T09:59:26;98715.81;;;28.18;36.07
9969;BME280;5025;48.890;9.278;2022-08-03T10:01:52;98710.03;;;28.23;35.93
9969;BME280;5025;48.890;9.278;2022-08-03T10:04:18;98699.47;;;28.41;35.33
9969;BME280;5025;48.890;9.278;2022-08-03T10:06:44;98704.34;;;28.44;35.11
9969;BME280;5025;48.890;9.278;2022-08-03T10:09:14;98698.44;;;28.46;35.58
9969;BME280;5025;48.890;9.278;2022-08-03T10:11:41;98692.72;;;28.55;35.66
9969;BME280;5025;48.890;9.278;2022-08-03T10:14:09;98698.63;;;28.66;35.71
9969;BME280;5025;48.890;9.278;2022-08-03T10:16:39;98690.78;;;28.68;35.04
9969;BME280;5025;48.890;9.278;2022-08-03T10:19:06;98694.09;;;28.73;34.74
9969;BME280;5025;48.890;9.278;2022-08-03T10:21:34;98688.50;;;28.86;35.01
9969;BME280;5025;48.890;9.278;2022-08-03T10:24:05;98689.16;;;28.95;34.81
9969;BME280;5025;48.890;9.278;2022-08-03T10:26:37;98688.88;;;29.00;34.91
9969;BME280;5025;48.890;9.278;2022-08-03T10:29:06;98691.88;;;29.07;34.70
9969;BME280;5025;48.890;9.278;2022-08-03T10:31:41;98680.47;;;29.12;34.13
9969;BME280;5025;48.890;9.278;2022-08-03T10:34:15;98682.66;;;29.19;34.01
9969;BME280;5025;48.890;9.278;2022-08-03T10:36:42;98675.47;;;29.18;33.99
9969;BME280;5025;48.890;9.278;2022-08-03T10:39:09;98671.66;;;29.23;33.94
9969;BME280;5025;48.890;9.278;2022-08-03T10:41:39;98673.47;;;29.31;34.13
9969;BME280;5025;48.890;9.278;2022-08-03T10:44:08;98673.22;;;29.36;34.01
9969;BME280;5025;48.890;9.278;2022-08-03T10:46:35;98671.06;;;29.45;34.13
9969;BME280;5025;48.890;9.278;2022-08-03T10:49:02;98663.72;;;29.53;33.94
9969;BME280;5025;48.890;9.278;2022-08-03T10:51:29;98664.72;;;29.61;33.79
9969;BME280;5025;48.890;9.278;2022-08-03T10:53:57;98660.94;;;29.69;33.76
9969;BME280;5025;48.890;9.278;2022-08-03T10:56:41;98660.63;;;29.74;33.65
9969;BME280;5025;48.890;9.278;2022-08-03T11:02:15;98650.53;;;29.82;33.19
9969;BME280;5025;48.890;9.278;2022-08-03T11:04:41;98657.00;;;29.86;32.88
9969;BME280;5025;48.890;9.278;2022-08-03T11:09:45;98653.31;;;29.98;32.78
9969;BME280;5025;48.890;9.278;2022-08-03T11:12:26;98648.88;;;29.97;32.56
9969;BME280;5025;48.890;9.278;2022-08-03T11:14:54;98655.88;;;30.07;32.58
9969;BME280;5025;48.890;9.278;2022-08-03T11:20:51;98652.34;;;30.26;32.40
9969;BME280;5025;48.890;9.278;2022-08-03T11:23:44;98643.44;;;30.20;31.95
9969;BME280;5025;48.890;9.278;2022-08-03T11:26:11;98639.56;;;30.25;31.87
9969;BME280;5025;48.890;9.278;2022-08-03T11:28:37;98640.16;;;30.34;31.78
9969;BME280;5025;48.890;9.278;2022-08-03T11:34:08;98635.09;;;30.55;31.37
9969;BME280;5025;48.890;9.278;2022-08-03T11:39:41;98630.84;;;30.62;31.42
9969;BME280;5025;48.890;9.278;2022-08-03T11:44:49;98638.44;;;30.84;31.40
9969;BME280;5025;48.890;9.278;2022-08-03T11:47:16;98634.16;;;30.90;31.42
9969;BME280;5025;48.890;9.278;2022-08-03T11:49:46;98635.47;;;30.97;30.83
9969;BME280;5025;48.890;9.278;2022-08-03T11:52:12;98621.72;;;31.04;30.38
9969;BME280;5025;48.890;9.278;2022-08-03T11:54:38;98629.34;;;31.07;29.98
9969;BME280;5025;48.890;9.278;2022-08-03T11:57:04;98625.75;;;31.06;30.44
9969;BME280;5025;48.890;9.278;2022-08-03T11:59:33;98636.75;;;31.19;30.37
9969;BME280;5025;48.890;9.278;2022-08-03T12:02:09;98620.78;;;31.19;30.22
9969;BME280;5025;48.890;9.278;2022-08-03T12:04:55;98618.56;;;31.28;30.17
9969;BME280;5025;48.890;9.278;2022-08-03T12:07:23;98613.00;;;31.28;30.22
9969;BME280;5025;48.890;9.278;2022-08-03T12:10:08;98613.97;;;31.40;30.21
9969;BME280;5025;48.890;9.278;2022-08-03T12:12:34;98619.72;;;31.51;30.25
9969;BME280;5025;48.890;9.278;2022-08-03T12:15:00;98623.59;;;31.66;30.27
9969;BME280;5025;48.890;9.278;2022-08-03T12:17:37;98621.59;;;31.66;29.43
9969;BME280;5025;48.890;9.278;2022-08-03T12:20:05;98619.69;;;31.70;29.20
9969;BME280;5025;48.890;9.278;2022-08-03T12:22:39;98612.09;;;31.71;29.24
9969;BME280;5025;48.890;9.278;2022-08-03T12:25:06;98607.81;;;31.77;29.31
9969;BME280;5025;48.890;9.278;2022-08-03T12:27:32;98614.72;;;31.87;29.02
9969;BME280;5025;48.890;9.278;2022-08-03T12:29:58;98603.69;;;31.94;28.65
9969;BME280;5025;48.890;9.278;2022-08-03T12:32:26;98603.84;;;32.05;28.66
9969;BME280;5025;48.890;9.278;2022-08-03T12:34:52;98600.56;;;31.99;28.31
9969;BME280;5025;48.890;9.278;2022-08-03T12:37:19;98604.16;;;31.99;28.37
9969;BME280;5025;48.890;9.278;2022-08-03T12:39:53;98607.19;;;32.14;28.34
9969;BME280;5025;48.890;9.278;2022-08-03T12:42:18;98609.75;;;32.26;28.27
9969;BME280;5025;48.890;9.278;2022-08-03T12:44:44;98594.66;;;32.34;28.26
9969;BME280;5025;48.890;9.278;2022-08-03T12:47:15;98589.94;;;32.39;28.04
9969;BME280;5025;48.890;9.278;2022-08-03T12:49:48;98586.38;;;32.42;27.99
9969;BME280;5025;48.890;9.278;2022-08-03T12:52:14;98588.91;;;32.50;28.32
9969;BME280;5025;48.890;9.278;2022-08-03T12:54:40;98580.19;;;32.59;28.17
9969;BME280;5025;48.890;9.278;2022-08-03T12:57:09;98592.22;;;32.60;27.44
9969;BME280;5025;48.890;9.278;2022-08-03T12:59:37;98589.69;;;32.51;27.39
9969;BME280;5025;48.890;9.278;2022-08-03T13:02:18;98582.84;;;32.45;27.34
9969;BME280;5025;48.890;9.278;2022-08-03T13:04:45;98580.50;;;32.50;27.14
9969;BME280;5025;48.890;9.278;2022-08-03T13:07:11;98580.19;;;32.59;26.84
9969;BME280;5025;48.890;9.278;2022-08-03T13:12:13;98581.19;;;32.74;26.08
9969;BME280;5025;48.890;9.278;2022-08-03T13:14:40;98580.72;;;32.68;25.63
9969;BME280;5025;48.890;9.278;2022-08-03T13:17:05;98580.78;;;32.72;26.23
9969;BME280;5025;48.890;9.278;2022-08-03T13:19:32;98576.41;;;32.75;25.55
9969;BME280;5025;48.890;9.278;2022-08-03T13:21:58;98575.63;;;32.78;25.91
9969;BME280;5025;48.890;9.278;2022-08-03T13:24:23;98562.53;;;32.85;25.99
9969;BME280;5025;48.890;9.278;2022-08-03T13:26:49;98572.22;;;32.95;25.82
9969;BME280;5025;48.890;9.278;2022-08-03T13:29:15;98571.50;;;33.02;25.71
9969;BME280;5025;48.890;9.278;2022-08-03T13:31:41;98567.19;;;33.15;25.26
9969;BME280;5025;48.890;9.278;2022-08-03T13:34:06;98569.75;;;33.28;25.32
9969;BME280;5025;48.890;9.278;2022-08-03T13:36:31;98570.25;;;33.40;25.25
9969;BME280;5025;48.890;9.278;2022-08-03T13:38:57;98568.75;;;33.54;25.12
9969;BME280;5025;48.890;9.278;2022-08-03T13:41:22;98556.84;;;33.64;24.87
9969;BME280;5025;48.890;9.278;2022-08-03T13:43:47;98556.53;;;33.76;24.89
9969;BME280;5025;48.890;9.278;2022-08-03T13:46:13;98566.63;;;33.92;24.83
9969;BME280;5025;48.890;9.278;2022-08-03T13:48:38;98560.72;;;34.08;24.84
9969;BME280;5025;48.890;9.278;2022-08-03T13:51:04;98550.81;;;34.28;24.60
9969;BME280;5025;48.890;9.278;2022-08-03T13:53:29;98555.72;;;34.53;24.73